Time;durP1;ratioP1;P1;durP2;ratioP2;P2;SDS_P1;SDS_P2;PMS_P1;PMS_P2;Temp;Humidity;BMP_temperature;BMP_pressure;BME280_temperature;BME280_humidity;BME280_pressure;Samples;Min_cycle;Max_cycle;Signal;HPM_P1;HPM_P2
2021/10/30 00:00:27;;;;;;;45.50;22.17;;;;;;;7.24;95.69;98955.75;5074288;28;20170;-93
2021/10/30 00:02:53;;;;;;;48.10;25.15;;;;;;;7.31;97.49;98961.88;5074596;28;20036;-94
2021/10/30 00:05:19;;;;;;;55.90;26.80;;;;;;;7.40;98.32;98949.41;5074813;28;20048;-92
2021/10/30 00:07:45;;;;;;;53.83;27.42;;;;;;;7.41;97.98;98931.75;5074996;28;20135;-92
2021/10/30 00:10:12;;;;;;;51.40;26.65;;;;;;;7.52;97.79;98943.06;5074736;28;20048;-93
2021/10/30 00:12:38;;;;;;;53.70;26.25;;;;;;;7.76;97.79;98970.13;5074797;28;20529;-94
2021/10/30 00:15:06;;;;;;;52.40;24.92;;;;;;;7.66;97.34;98956.16;5074939;28;20041;-94
2021/10/30 00:17:34;;;;;;;49.75;26.23;;;;;;;7.74;96.58;98966.63;5074787;28;20079;-94
2021/10/30 00:19:59;;;;;;;49.75;25.63;;;;;;;7.64;96.32;98960.59;5074694;28;20040;-92
2021/10/30 00:22:28;;;;;;;48.13;24.50;;;;;;;7.63;96.35;98958.81;5074790;28;20041;-94
2021/10/30 00:24:54;;;;;;;49.10;24.83;;;;;;;7.69;96.79;98957.88;5074666;28;20052;-94
2021/10/30 00:27:20;;;;;;;55.22;25.75;;;;;;;7.73;96.92;98964.91;5090937;28;20101;-92
2021/10/30 00:29:46;;;;;;;52.78;27.67;;;;;;;7.64;96.38;98957.94;5095186;28;20044;-94
2021/10/30 00:32:12;;;;;;;49.70;26.00;;;;;;;7.71;96.89;98977.28;5094888;28;20409;-94
2021/10/30 00:34:39;;;;;;;51.90;25.77;;;;;;;7.46;97.13;98942.28;5095087;28;20052;-95
2021/10/30 00:37:05;;;;;;;55.28;27.27;;;;;;;7.61;96.59;98963.25;5094823;28;20089;-94
2021/10/30 00:39:31;;;;;;;48.30;25.58;;;;;;;7.64;96.47;98984.41;5094421;28;20040;-94
2021/10/30 00:41:58;;;;;;;55.63;26.02;;;;;;;7.47;96.20;98952.84;5094298;28;20127;-95
2021/10/30 00:44:24;;;;;;;50.75;25.30;;;;;;;7.50;96.40;98949.28;5094684;28;20040;-93
2021/10/30 00:46:51;;;;;;;53.03;25.33;;;;;;;7.56;96.39;98959.81;5097137;28;20511;-95
2021/10/30 00:49:18;;;;;;;48.70;24.45;;;;;;;7.29;96.55;98937.19;5098474;28;20044;-94
2021/10/30 00:51:51;;;;;;;48.90;25.08;;;;;;;7.31;96.36;98956.56;5098372;28;20101;-93
2021/10/30 00:54:18;;;;;;;48.20;26.17;;;;;;;7.43;96.50;98979.38;5098188;28;20124;-94
2021/10/30 00:56:45;;;;;;;48.03;24.95;;;;;;;7.29;96.38;98967.16;5098150;28;20051;-95
2021/10/30 00:59:14;;;;;;;46.20;24.60;;;;;;;7.35;96.83;98963.56;5098107;28;20595;-93
2021/10/30 01:01:42;;;;;;;49.00;25.48;;;;;;;7.38;96.94;98977.63;5098570;28;20051;-94
2021/10/30 01:04:08;;;;;;;49.72;25.48;;;;;;;7.30;95.81;98979.47;5096788;28;20538;-94
2021/10/30 01:06:38;;;;;;;46.53;23.80;;;;;;;7.20;95.57;98976.06;5078035;28;20131;-94
2021/10/30 01:09:06;;;;;;;49.15;24.77;;;;;;;6.97;94.85;98960.41;5080596;28;20077;-94
2021/10/30 01:11:32;;;;;;;49.80;24.20;;;;;;;6.84;95.67;98957.91;5098298;28;20051;-94
2021/10/30 01:13:58;;;;;;;47.30;24.17;;;;;;;6.89;95.80;98977.25;5098359;28;20048;-95
2021/10/30 01:16:24;;;;;;;48.28;24.88;;;;;;;6.67;96.27;98951.00;5097877;28;20040;-94
2021/10/30 01:18:50;;;;;;;54.50;26.83;;;;;;;6.70;97.94;98951.00;5097200;28;20436;-93
2021/10/30 01:21:26;;;;;;;56.92;27.58;;;;;;;6.90;99.16;98986.94;5077601;28;20044;-93
2021/10/30 01:23:53;;;;;;;53.47;26.08;;;;;;;6.76;99.52;98950.03;5077588;28;20072;-93
2021/10/30 01:29:21;;;;;;;57.75;28.13;;;;;;;6.95;99.81;98967.50;5154433;27;20374;-95
2021/10/30 01:31:49;;;;;;;60.88;28.02;;;;;;;7.00;99.67;98978.03;5154191;27;20072;-94
2021/10/30 01:34:15;;;;;;;60.50;29.98;;;;;;;7.04;99.52;98979.75;5154143;27;20484;-94
2021/10/30 01:36:41;;;;;;;53.78;28.45;;;;;;;7.07;99.31;98969.16;5153986;27;20042;-91
2021/10/30 01:39:09;;;;;;;60.00;29.25;;;;;;;7.02;99.12;98970.09;5152850;27;20035;-95
2021/10/30 01:41:36;;;;;;;64.10;29.25;;;;;;;7.03;99.19;98967.44;5153661;27;20047;-93
2021/10/30 01:44:03;;;;;;;65.63;30.30;;;;;;;6.87;99.20;98961.38;5153252;27;20067;-92
2021/10/30 01:46:32;;;;;;;60.92;30.38;;;;;;;6.88;99.76;98962.28;5151934;27;20039;-91
2021/10/30 01:48:58;;;;;;;61.70;29.85;;;;;;;6.77;99.88;98957.09;5153241;27;20031;-94
2021/10/30 01:51:24;;;;;;;58.97;29.20;;;;;;;6.75;99.50;98961.53;5153353;27;20057;-93
2021/10/30 01:53:50;;;;;;;55.25;28.85;;;;;;;6.63;100.00;98957.19;5153094;27;20117;-92
2021/10/30 01:56:16;;;;;;;57.17;28.42;;;;;;;6.65;100.00;98941.34;5153422;27;20430;-91
2021/10/30 01:58:43;;;;;;;66.68;30.55;;;;;;;6.53;100.00;98934.41;5153208;27;20035;-92
2021/10/30 02:01:09;;;;;;;66.05;29.95;;;;;;;6.63;100.00;98932.53;5152891;27;20396;-94
2021/10/30 02:03:36;;;;;;;61.25;31.25;;;;;;;6.75;100.00;98938.59;5153506;27;20042;-94
2021/10/30 02:06:04;;;;;;;60.35;29.38;;;;;;;6.84;100.00;98955.28;5153703;27;20047;-93
2021/10/30 02:08:31;;;;;;;62.85;28.88;;;;;;;6.91;100.00;98951.69;5153188;27;20035;-92
2021/10/30 02:10:57;;;;;;;58.60;29.42;;;;;;;6.98;100.00;98945.44;5153077;27;20039;-93
2021/10/30 02:13:24;;;;;;;57.35;29.02;;;;;;;6.91;100.00;98915.53;5153327;27;20420;-93
2021/10/30 02:15:51;;;;;;;57.17;28.33;;;;;;;7.08;100.00;98933.00;5152534;27;20138;-92
2021/10/30 02:18:17;;;;;;;61.90;29.13;;;;;;;7.02;99.34;98915.44;5152979;27;20592;-93
2021/10/30 02:20:45;;;;;;;60.35;27.52;;;;;;;7.02;99.11;98919.84;5152427;27;20061;-93
2021/10/30 02:23:14;;;;;;;53.05;28.05;;;;;;;6.95;98.97;98914.63;5152120;27;20111;-91
2021/10/30 02:25:40;;;;;;;58.95;30.23;;;;;;;7.00;99.24;98930.44;5152783;27;20450;-92
2021/10/30 02:28:06;;;;;;;54.15;27.35;;;;;;;6.81;99.26;98905.97;5151999;27;20096;-94
2021/10/30 02:30:32;;;;;;;56.10;27.90;;;;;;;6.76;99.32;98924.47;5150870;27;20039;-93
2021/10/30 02:33:00;;;;;;;60.20;30.63;;;;;;;6.57;99.74;98905.31;5152264;27;20045;-93
2021/10/30 02:35:26;;;;;;;59.15;28.85;;;;;;;6.62;99.78;98925.53;5152648;27;20092;-93
2021/10/30 02:37:54;;;;;;;61.08;30.27;;;;;;;6.53;99.96;98918.56;5152515;27;20031;-92
2021/10/30 02:40:20;;;;;;;58.65;28.67;;;;;;;6.35;99.92;98896.69;5140182;27;20039;-94
2021/10/30 02:42:45;;;;;;;63.15;29.65;;;;;;;6.36;100.00;98898.41;5138404;27;20050;-95
2021/10/30 02:45:11;;;;;;;75.43;32.65;;;;;;;6.47;100.00;98893.06;5138431;27;20443;-93
2021/10/30 02:47:37;;;;;;;70.47;32.63;;;;;;;6.65;100.00;98915.78;5138773;27;20484;-93
2021/10/30 02:50:04;;;;;;;79.13;33.42;;;;;;;6.89;100.00;98917.31;5138547;27;20054;-93
2021/10/30 02:52:30;;;;;;;68.95;30.60;;;;;;;6.94;100.00;98915.53;5137447;27;20042;-94
2021/10/30 02:54:57;;;;;;;66.60;29.70;;;;;;;6.93;100.00;98899.66;5138547;27;20595;-94
2021/10/30 02:57:23;;;;;;;53.28;27.60;;;;;;;6.96;100.00;98903.16;5138746;27;20100;-92
2021/10/30 02:59:49;;;;;;;55.38;27.27;;;;;;;6.93;100.00;98897.88;5138438;27;20043;-95
2021/10/30 03:02:15;;;;;;;60.15;28.15;;;;;;;6.89;99.55;98905.88;5138153;27;20039;-93
2021/10/30 03:04:41;;;;;;;52.90;26.48;;;;;;;6.94;99.57;98918.16;5138560;27;20045;-94
2021/10/30 03:07:06;;;;;;;53.47;26.83;;;;;;;6.76;99.22;98890.13;5138533;27;20051;-95
2021/10/30 03:09:32;;;;;;;50.33;26.15;;;;;;;6.71;98.19;98917.50;5138440;27;20039;-94
2021/10/30 03:12:00;;;;;;;51.28;25.27;;;;;;;6.54;98.65;98910.59;5138443;27;20182;-94
2021/10/30 03:14:26;;;;;;;53.30;24.80;;;;;;;6.45;98.91;98909.81;5138472;27;20043;-95
2021/10/30 03:16:52;;;;;;;50.47;24.67;;;;;;;6.38;97.93;98923.06;5138251;27;20580;-95
2021/10/30 03:19:18;;;;;;;48.38;23.92;;;;;;;6.20;98.18;98915.25;5138246;27;20488;-95
2021/10/30 03:21:43;;;;;;;46.30;24.13;;;;;;;6.18;98.16;98932.91;5138347;27;20080;-93
2021/10/30 03:24:09;;;;;;;49.88;24.67;;;;;;;6.10;98.87;98922.38;5138301;27;20097;-95
2021/10/30 03:26:35;;;;;;;49.70;24.77;;;;;;;6.11;99.04;98920.59;5138037;27;20107;-94
2021/10/30 03:29:03;;;;;;;49.30;26.42;;;;;;;6.11;100.00;98915.31;5137675;27;20074;-94
2021/10/30 03:31:28;;;;;;;57.42;26.48;;;;;;;6.11;100.00;98918.84;5137733;27;20107;-95
2021/10/30 03:33:54;;;;;;;49.85;25.08;;;;;;;6.01;99.99;98913.63;5138038;27;20063;-94
2021/10/30 03:36:20;;;;;;;50.97;24.83;;;;;;;5.97;99.24;98915.44;5138109;27;20046;-93
2021/10/30 03:38:46;;;;;;;48.60;25.77;;;;;;;5.89;100.00;98896.09;5137885;27;20051;-94
2021/10/30 03:41:12;;;;;;;59.85;28.48;;;;;;;6.07;100.00;98897.75;5137299;27;20527;-94
2021/10/30 03:43:38;;;;;;;64.15;30.80;;;;;;;6.25;100.00;98913.47;5136910;27;20043;-93
2021/10/30 03:46:05;;;;;;;63.42;30.42;;;;;;;6.22;100.00;98902.91;5136952;27;20044;-92
2021/10/30 03:48:31;;;;;;;69.63;30.48;;;;;;;6.14;100.00;98892.44;5137490;27;20039;-91
2021/10/30 03:50:57;;;;;;;61.13;29.30;;;;;;;6.26;100.00;98923.13;5136753;27;20039;-93
2021/10/30 03:53:23;;;;;;;62.25;28.10;;;;;;;6.21;100.00;98927.59;5137608;27;20541;-94
2021/10/30 03:55:49;;;;;;;60.03;28.35;;;;;;;6.23;100.00;98936.38;5137372;27;20484;-93
2021/10/30 03:58:16;;;;;;;62.70;28.48;;;;;;;6.20;100.00;98946.94;5137803;27;20084;-93
2021/10/30 04:00:43;;;;;;;58.10;27.17;;;;;;;6.17;100.00;98949.63;5137307;27;20039;-93
2021/10/30 04:03:11;;;;;;;56.55;27.05;;;;;;;6.13;100.00;98953.16;5137442;27;20088;-94
2021/10/30 04:05:38;;;;;;;57.70;26.20;;;;;;;6.06;100.00;98932.97;5137362;27;20429;-94
2021/10/30 04:08:05;;;;;;;46.95;23.88;;;;;;;6.07;100.00;98932.06;5137145;27;20283;-94
2021/10/30 04:10:30;;;;;;;48.53;24.80;;;;;;;5.96;99.81;98934.78;5137249;27;20093;-94
2021/10/30 04:12:56;;;;;;;50.75;25.80;;;;;;;5.94;99.56;98952.34;5137344;27;20051;-94
2021/10/30 04:15:22;;;;;;;44.88;22.92;;;;;;;5.86;99.39;98957.69;5137395;27;20043;-94
2021/10/30 04:17:48;;;;;;;53.28;24.83;;;;;;;5.71;99.22;98945.44;5137324;27;20047;-94
2021/10/30 04:20:15;;;;;;;48.67;22.83;;;;;;;5.63;98.78;98927.91;5137025;27;20385;-93
2021/10/30 04:22:42;;;;;;;51.80;25.02;;;;;;;5.71;100.00;98950.72;5136532;27;20036;-92
2021/10/30 04:25:08;;;;;;;59.38;29.50;;;;;;;5.76;100.00;98941.00;5136906;27;20054;-92
2021/10/30 04:27:34;;;;;;;58.55;27.42;;;;;;;5.69;100.00;98934.00;5136172;27;20054;-93
2021/10/30 04:30:00;;;;;;;61.03;27.73;;;;;;;5.83;100.00;98960.31;5137076;27;20039;-92
2021/10/30 04:32:26;;;;;;;63.50;29.98;;;;;;;5.73;100.00;98938.41;5136747;27;20466;-94
2021/10/30 04:34:58;;;;;;;58.90;27.10;;;;;;;5.76;100.00;98934.84;5136769;27;20043;-94
2021/10/30 04:37:26;;;;;;;53.67;26.65;;;;;;;5.92;100.00;98960.31;5137126;27;20361;-94
2021/10/30 04:39:53;;;;;;;52.60;25.15;;;;;;;5.89;100.00;98956.78;5136892;27;20047;-93
2021/10/30 04:42:20;;;;;;;50.97;26.67;;;;;;;5.72;100.00;98944.53;5136547;27;20092;-94
2021/10/30 04:44:46;;;;;;;52.67;24.10;;;;;;;5.68;100.00;98947.22;5136424;27;20496;-94
2021/10/30 04:47:14;;;;;;;53.05;25.60;;;;;;;5.59;100.00;98942.84;5136537;27;20074;-93
2021/10/30 04:49:40;;;;;;;47.00;24.13;;;;;;;5.56;100.00;98953.44;5136287;27;20093;-93
2021/10/30 04:52:07;;;;;;;51.75;24.35;;;;;;;5.60;100.00;98983.31;5136647;27;20039;-94
2021/10/30 04:54:34;;;;;;;50.10;24.45;;;;;;;5.40;99.62;98946.44;5136256;27;20043;-93
2021/10/30 04:57:00;;;;;;;48.33;25.02;;;;;;;5.48;99.92;98963.13;5136308;27;20122;-94
2021/10/30 04:59:26;;;;;;;50.15;24.10;;;;;;;5.47;100.00;98949.06;5136484;27;20515;-94
2021/10/30 05:01:52;;;;;;;55.20;25.50;;;;;;;5.69;100.00;98955.13;5136262;27;20366;-93
2021/10/30 05:04:17;;;;;;;61.08;28.38;;;;;;;5.87;100.00;98959.44;5136067;27;20138;-93
2021/10/30 05:06:43;;;;;;;62.97;27.75;;;;;;;6.00;100.00;98944.44;5136049;27;20043;-93
2021/10/30 05:09:09;;;;;;;56.08;26.00;;;;;;;5.88;100.00;98928.66;5136033;27;20042;-92
2021/10/30 05:11:37;;;;;;;51.40;25.73;;;;;;;5.83;100.00;98931.28;5136182;27;20027;-93
2021/10/30 05:14:03;;;;;;;50.42;24.50;;;;;;;5.83;100.00;98947.13;5136608;27;20050;-94
2021/10/30 05:16:29;;;;;;;50.13;24.23;;;;;;;5.77;100.00;98957.75;5136555;27;20104;-95
2021/10/30 05:18:55;;;;;;;51.33;25.63;;;;;;;5.76;100.00;98972.66;5136685;27;20092;-94
2021/10/30 05:21:21;;;;;;;55.70;24.75;;;;;;;5.53;100.00;98956.06;5136209;27;20075;-95
2021/10/30 05:23:47;;;;;;;57.85;27.42;;;;;;;5.55;99.92;98976.28;5136463;27;20058;-94
2021/10/30 05:26:12;;;;;;;52.33;25.20;;;;;;;5.53;99.89;98985.97;5136299;28;20044;-94
2021/10/30 05:28:40;;;;;;;54.30;26.52;;;;;;;5.41;99.65;98971.94;5140809;28;20077;-95
2021/10/30 05:31:06;;;;;;;52.85;26.10;;;;;;;5.34;99.83;98971.97;5140668;28;20075;-94
2021/10/30 05:33:32;;;;;;;50.72;24.88;;;;;;;5.29;99.06;98965.84;5140904;28;20061;-96
2021/10/30 05:35:58;;;;;;;46.38;23.40;;;;;;;5.19;99.33;98947.41;5139842;28;20024;-94
2021/10/30 05:38:24;;;;;;;51.20;24.58;;;;;;;5.19;98.91;98969.38;5140694;28;20549;-95
2021/10/30 05:40:50;;;;;;;60.58;25.38;;;;;;;5.19;99.86;98977.28;5137726;28;20047;-94
2021/10/30 05:43:16;;;;;;;53.55;25.05;;;;;;;5.26;99.65;98986.91;5137412;28;20051;-94
2021/10/30 05:45:45;;;;;;;54.92;26.05;;;;;;;5.18;99.88;98979.91;5137273;28;20580;-95
2021/10/30 05:48:13;;;;;;;51.55;24.90;;;;;;;5.29;99.99;98986.03;5137528;28;20036;-93
2021/10/30 05:50:40;;;;;;;47.88;24.02;;;;;;;5.29;100.00;98986.03;5138014;28;20051;-93
2021/10/30 05:53:07;;;;;;;52.50;25.83;;;;;;;5.11;99.16;98963.22;5138626;27;20070;-93
2021/10/30 05:55:33;;;;;;;117.22;39.40;;;;;;;5.11;99.37;98950.91;5138252;28;20047;-94
2021/10/30 05:58:00;;;;;;;61.72;28.80;;;;;;;5.16;98.78;98956.16;5138144;28;20050;-96
2021/10/30 06:00:26;;;;;;;192.07;57.25;;;;;;;4.98;99.29;98964.13;5137394;28;20089;-94
2021/10/30 06:02:54;;;;;;;159.73;63.72;;;;;;;4.90;100.00;98986.09;5136962;28;20039;-93
2021/10/30 06:05:20;;;;;;;148.48;63.13;;;;;;;4.77;100.00;98957.13;5138226;28;20059;-94
2021/10/30 06:07:46;;;;;;;73.63;33.83;;;;;;;4.90;100.00;98977.31;5138023;28;20043;-95
2021/10/30 06:10:12;;;;;;;260.92;55.97;;;;;;;5.01;100.00;98978.19;5136824;28;20047;-93
2021/10/30 06:12:40;;;;;;;268.70;69.88;;;;;;;4.87;100.00;98966.78;5137816;28;20100;-93
2021/10/30 06:15:08;;;;;;;186.93;61.13;;;;;;;4.85;100.00;98990.47;5138824;27;20046;-91
2021/10/30 06:17:34;;;;;;;270.13;58.30;;;;;;;4.74;100.00;98977.31;5141323;27;20058;-91
2021/10/30 06:20:01;;;;;;;202.60;46.58;;;;;;;4.79;100.00;98984.34;5142638;27;20035;-92
2021/10/30 06:22:27;;;;;;;201.70;41.90;;;;;;;4.68;100.00;98969.44;5141527;27;20126;-93
2021/10/30 06:24:53;;;;;;;275.50;39.50;;;;;;;4.81;100.00;98977.31;5141684;27;20066;-94
2021/10/30 06:27:19;;;;;;;162.13;39.15;;;;;;;4.86;100.00;98975.56;5141194;27;20143;-93
2021/10/30 06:29:45;;;;;;;86.43;34.85;;;;;;;4.96;100.00;98974.66;5140329;27;20120;-93
2021/10/30 06:32:11;;;;;;;71.57;32.67;;;;;;;5.18;100.00;98974.63;5140877;27;20446;-92
2021/10/30 06:34:37;;;;;;;72.97;31.35;;;;;;;5.30;100.00;98979.88;5141238;27;20043;-93
2021/10/30 06:37:06;;;;;;;70.70;31.15;;;;;;;5.53;100.00;98991.25;5140494;27;20074;-94
2021/10/30 06:39:32;;;;;;;60.95;28.40;;;;;;;5.58;100.00;98959.56;5142276;27;20130;-94
2021/10/30 06:41:58;;;;;;;63.17;28.48;;;;;;;5.87;100.00;98969.97;5144480;27;20059;-95
2021/10/30 06:44:24;;;;;;;56.95;26.15;;;;;;;5.96;100.00;98943.59;5142383;27;20489;-95
2021/10/30 06:46:52;;;;;;;61.20;28.23;;;;;;;6.30;100.00;98980.34;5140900;27;20042;-93
2021/10/30 06:49:18;;;;;;;63.25;27.63;;;;;;;6.43;100.00;98990.81;5144944;27;20066;-95
2021/10/30 06:51:45;;;;;;;56.95;25.08;;;;;;;6.38;100.00;98956.53;5140643;27;20047;-95
2021/10/30 06:54:18;;;;;;;51.22;25.70;;;;;;;6.53;100.00;98977.53;5142377;27;20050;-95
2021/10/30 06:56:44;;;;;;;46.70;23.23;;;;;;;6.66;99.21;98993.28;5142290;27;20051;-95
2021/10/30 06:59:16;;;;;;;50.08;23.35;;;;;;;6.72;98.29;98986.22;5142489;27;20039;-95
2021/10/30 07:01:48;;;;;;;46.10;24.52;;;;;;;6.64;98.13;98985.38;5147157;27;20050;-96
2021/10/30 07:04:15;;;;;;;44.88;23.05;;;;;;;6.78;98.89;99003.78;5148523;27;20043;-95
2021/10/30 07:06:42;;;;;;;49.28;22.23;;;;;;;6.90;98.58;99005.44;5148493;27;20047;-94
2021/10/30 07:09:08;;;;;;;44.15;22.10;;;;;;;6.92;98.24;98995.75;5147528;27;20043;-94
2021/10/30 07:11:36;;;;;;;43.03;22.02;;;;;;;6.96;96.90;98998.34;5141426;27;20401;-94
2021/10/30 07:14:01;;;;;;;45.13;24.13;;;;;;;7.00;96.57;99001.81;5141201;27;20133;-93
2021/10/30 07:16:28;;;;;;;46.50;23.48;;;;;;;7.29;96.85;99016.56;5142597;27;20456;-93
2021/10/30 07:18:53;;;;;;;44.25;22.33;;;;;;;7.51;95.72;99019.84;5141744;27;20043;-94
2021/10/30 07:21:19;;;;;;;42.25;21.77;;;;;;;7.65;94.49;99004.69;5141376;27;20050;-93
2021/10/30 07:23:45;;;;;;;39.17;20.33;;;;;;;7.89;94.17;99016.75;5140665;27;20031;-92
2021/10/30 07:26:11;;;;;;;42.72;22.08;;;;;;;8.03;93.99;99009.50;5139918;27;20049;-92
2021/10/30 07:28:41;;;;;;;43.15;22.25;;;;;;;8.02;90.06;98999.84;5137913;27;20503;-93
2021/10/30 07:31:07;;;;;;;43.40;23.00;;;;;;;8.13;89.50;98986.44;5139370;27;20085;-93
2021/10/30 07:33:33;;;;;;;41.00;21.48;;;;;;;8.28;89.67;98984.47;5139842;27;20035;-92
2021/10/30 07:35:59;;;;;;;40.78;20.35;;;;;;;8.62;89.42;99020.19;5140015;27;20039;-93
2021/10/30 07:38:26;;;;;;;38.97;20.05;;;;;;;8.79;88.31;99016.41;5144557;27;20039;-94
2021/10/30 07:40:52;;;;;;;35.35;19.20;;;;;;;8.85;86.06;98992.47;5144608;27;20095;-93
2021/10/30 07:43:18;;;;;;;37.97;20.15;;;;;;;8.99;85.78;99010.78;5142258;27;20074;-93
2021/10/30 07:45:46;;;;;;;39.08;20.95;;;;;;;8.69;86.51;99002.41;5144955;27;20046;-94
2021/10/30 07:48:12;;;;;;;38.45;20.98;;;;;;;8.57;89.58;98994.69;5146147;27;20039;-95
2021/10/30 07:50:38;;;;;;;37.92;20.55;;;;;;;8.70;87.81;99003.31;5147786;27;20039;-94
2021/10/30 07:53:04;;;;;;;41.78;20.70;;;;;;;8.53;88.41;99004.44;5146169;27;20050;-95
2021/10/30 07:55:32;;;;;;;38.85;20.88;;;;;;;8.73;87.72;98993.53;5145381;27;20043;-95
2021/10/30 07:57:59;;;;;;;42.10;23.00;;;;;;;8.92;86.15;98999.41;5147661;27;20031;-95
2021/10/30 08:00:25;;;;;;;40.53;21.58;;;;;;;8.90;87.06;98995.91;5146449;27;20039;-95
2021/10/30 08:02:53;;;;;;;40.13;21.80;;;;;;;9.01;87.68;99036.38;5145075;27;20047;-95
2021/10/30 08:05:19;;;;;;;40.25;23.00;;;;;;;9.21;86.98;99028.06;5146170;27;20040;-94
2021/10/30 08:07:47;;;;;;;41.83;21.40;;;;;;;9.03;85.43;99005.41;5143286;27;20060;-96
2021/10/30 08:10:13;;;;;;;40.00;20.45;;;;;;;9.27;84.66;99020.94;5143122;27;20070;-94
2021/10/30 08:12:40;;;;;;;39.15;20.10;;;;;;;9.44;83.51;99017.06;5143565;27;20074;-94
2021/10/30 08:15:07;;;;;;;38.47;20.38;;;;;;;9.70;81.13;99025.44;5145226;27;20043;-94
2021/10/30 08:17:33;;;;;;;40.17;20.85;;;;;;;9.76;81.13;99015.56;5145944;27;20047;-95
2021/10/30 08:20:03;;;;;;;41.78;20.52;;;;;;;9.88;79.33;99004.69;5146021;27;20451;-95
2021/10/30 08:22:29;;;;;;;36.85;20.40;;;;;;;10.12;78.81;99033.44;5145651;27;20065;-94
2021/10/30 08:24:55;;;;;;;35.38;18.92;;;;;;;9.94;79.64;99011.66;5144259;27;20043;-93
2021/10/30 08:27:22;;;;;;;36.97;19.60;;;;;;;10.03;81.20;99013.25;5142660;27;20051;-95
2021/10/30 08:29:47;;;;;;;40.00;20.85;;;;;;;10.07;80.21;99020.25;5142494;27;20054;-94
2021/10/30 08:32:14;;;;;;;37.95;21.15;;;;;;;10.19;79.99;99020.00;5142054;27;20047;-96
2021/10/30 08:34:40;;;;;;;37.97;21.17;;;;;;;10.26;79.07;99021.59;5141271;27;20393;-95
2021/10/30 08:37:09;;;;;;;37.63;21.48;;;;;;;10.39;78.62;99021.38;5141211;27;20073;-95
2021/10/30 08:39:36;;;;;;;36.28;20.52;;;;;;;10.48;77.80;99006.09;5143637;27;20095;-95
2021/10/30 08:42:04;;;;;;;36.85;20.48;;;;;;;10.40;77.56;99023.97;5142513;27;20038;-93
2021/10/30 08:44:30;;;;;;;37.78;20.70;;;;;;;10.42;80.07;99027.47;5144073;27;20039;-94
2021/10/30 08:46:55;;;;;;;38.25;20.42;;;;;;;10.59;78.82;99029.78;5141998;27;20064;-94
2021/10/30 08:49:22;;;;;;;39.05;20.48;;;;;;;10.33;78.32;99017.06;5143286;27;20035;-92
2021/10/30 08:51:49;;;;;;;38.40;20.92;;;;;;;10.30;78.71;99027.78;5141875;27;20047;-94
2021/10/30 08:54:16;;;;;;;40.50;22.27;;;;;;;10.52;77.49;99032.59;5142755;27;20070;-94
2021/10/30 08:56:42;;;;;;;38.08;20.45;;;;;;;10.41;78.50;99022.19;5142837;27;20043;-95
2021/10/30 08:59:09;;;;;;;34.97;19.48;;;;;;;10.60;77.88;99038.63;5143249;27;20065;-93
2021/10/30 09:01:43;;;;;;;38.72;20.52;;;;;;;10.61;78.68;99013.78;5145274;27;20057;-93
2021/10/30 09:04:12;;;;;;;41.72;21.27;;;;;;;10.71;78.00;99028.59;5141432;27;20095;-93
2021/10/30 09:06:39;;;;;;;38.13;20.90;;;;;;;10.59;78.09;99019.13;5140460;27;20154;-92
2021/10/30 09:09:13;;;;;;;38.47;21.67;;;;;;;10.42;79.63;99010.66;5140214;27;20042;-94
2021/10/30 09:11:42;;;;;;;40.90;22.92;;;;;;;10.57;80.15;99031.59;5145890;27;20038;-95
2021/10/30 09:14:16;;;;;;;;;;;;;;;10.92;78.53;99023.69;5142396;27;20050;-94
2021/10/30 09:16:42;;;;;;;50.42;27.50;;;;;;;11.02;76.75;98987.97;5140963;27;19976;-94
2021/10/30 09:19:09;;;;;;;38.90;21.98;;;;;;;11.08;77.34;98998.44;5143380;27;20043;-94
2021/10/30 09:21:35;;;;;;;39.75;21.48;;;;;;;10.96;78.28;98988.97;5142926;27;20050;-93
2021/10/30 09:24:01;;;;;;;36.30;21.95;;;;;;;11.34;77.68;98999.53;5144041;27;20071;-93
2021/10/30 09:26:30;;;;;;;51.55;25.40;;;;;;;11.50;75.39;98991.13;5142565;27;20036;-93
2021/10/30 09:29:05;;;;;;;38.38;22.73;;;;;;;11.00;76.40;98989.78;5141012;28;20043;-93
2021/10/30 09:31:31;;;;;;;35.78;20.63;;;;;;;11.27;76.73;98999.69;5141510;28;20401;-94
2021/10/30 09:33:58;;;;;;;41.40;22.60;;;;;;;11.20;77.77;99000.78;5139879;28;20051;-93
2021/10/30 09:36:29;;;;;;;39.05;20.25;;;;;;;11.57;75.40;99006.94;5142226;28;20068;-94
2021/10/30 09:38:57;;;;;;;152.30;64.18;;;;;;;11.78;74.02;98981.50;5143283;28;20042;-95
2021/10/30 09:41:25;;;;;;;36.63;19.63;;;;;;;12.13;72.08;99007.13;5142008;28;20039;-94
2021/10/30 09:43:56;;;;;;;33.00;19.25;;;;;;;12.06;72.34;99010.91;5143487;28;20134;-94
2021/10/30 09:46:24;;;;;;;36.42;20.65;;;;;;;11.92;73.22;98968.66;5140902;28;20043;-95
2021/10/30 09:48:52;;;;;;;36.10;19.58;;;;;;;12.02;71.79;98963.94;5142144;27;20039;-94
2021/10/30 09:51:35;;;;;;;30.77;18.58;;;;;;;12.22;71.59;98971.34;5145878;27;20024;-93
2021/10/30 09:54:05;;;;;;;37.25;19.25;;;;;;;12.35;70.78;98974.50;5147779;27;20042;-94
2021/10/30 09:56:42;;;;;;;35.45;18.77;;;;;;;12.53;70.01;98971.25;5144242;27;20114;-95
2021/10/30 09:59:09;;;;;;;33.38;17.75;;;;;;;12.72;68.61;98961.72;5144675;27;20071;-95
2021/10/30 10:01:37;;;;;;;32.20;17.98;;;;;;;12.88;68.50;98956.78;5142848;27;20103;-94
2021/10/30 10:04:05;;;;;;;35.50;18.87;;;;;;;12.99;68.54;98966.19;5143544;27;20043;-94
2021/10/30 10:06:32;;;;;;;36.50;19.75;;;;;;;13.11;67.50;98952.44;5145204;27;20075;-94
2021/10/30 10:08:59;;;;;;;35.13;16.27;;;;;;;13.07;66.24;98961.47;5126691;28;20105;-94
2021/10/30 10:11:25;;;;;;;28.52;15.75;;;;;;;13.04;65.92;98965.13;5140901;27;20043;-94
2021/10/30 10:13:51;;;;;;;23.80;14.27;;;;;;;13.30;65.66;98982.09;5145958;27;20050;-95
2021/10/30 10:16:19;;;;;;;26.17;15.60;;;;;;;13.30;65.95;98953.56;5144146;27;20042;-96
2021/10/30 10:18:48;;;;;;;32.25;17.13;;;;;;;13.53;66.47;98982.16;5143600;27;20046;-95
2021/10/30 10:21:18;;;;;;;30.20;17.02;;;;;;;13.57;66.34;98974.88;5143570;27;20061;-96
2021/10/30 10:23:45;;;;;;;31.00;17.67;;;;;;;13.65;66.44;98972.81;5144165;27;20047;-96
2021/10/30 10:26:12;;;;;;;36.85;18.45;;;;;;;13.63;66.49;98958.63;5144573;27;20496;-96
2021/10/30 10:28:39;;;;;;;33.13;18.80;;;;;;;13.74;66.15;98963.59;5142488;27;20051;-94
2021/10/30 10:31:12;;;;;;;31.55;17.67;;;;;;;13.67;65.82;98949.56;5143163;27;20048;-95
2021/10/30 10:33:39;;;;;;;26.90;15.55;;;;;;;13.67;65.43;98946.03;5142738;27;20521;-94
2021/10/30 10:36:22;;;;;;;24.33;14.98;;;;;;;13.67;63.90;98952.25;5142578;27;20103;-95
2021/10/30 10:39:16;;;;;;;25.40;14.75;;;;;;;13.70;64.21;98967.28;5143454;27;20100;-96
2021/10/30 10:41:53;;;;;;;26.40;15.23;;;;;;;13.71;64.90;98963.72;5139169;27;20108;-95
2021/10/30 10:44:58;;;;;;;28.20;15.95;;;;;;;13.79;65.46;98963.41;5143760;27;20046;-94
2021/10/30 10:47:51;;;;;;;29.88;15.43;;;;;;;13.80;64.78;98958.00;5145308;27;20050;-95
2021/10/30 10:50:23;;;;;;;28.13;16.52;;;;;;;13.51;64.35;98921.66;5145583;27;20098;-95
2021/10/30 10:53:19;;;;;;;26.23;16.25;;;;;;;13.72;65.69;98960.09;5144472;27;20038;-94
2021/10/30 10:56:08;;;;;;;26.42;15.23;;;;;;;13.76;64.87;98953.72;5141702;27;20039;-94
2021/10/30 10:59:07;;;;;;;;;;;;;;;13.68;65.31;98953.13;5146074;27;20039;-93
2021/10/30 11:01:38;;;;;;;25.48;14.82;;;;;;;13.77;65.90;98950.13;5135506;27;19958;-95
2021/10/30 11:04:13;;;;;;;28.23;14.57;;;;;;;13.75;65.06;98922.59;5143379;27;20043;-96
2021/10/30 11:06:45;;;;;;;29.80;16.17;;;;;;;13.74;65.34;98902.13;5144047;27;20130;-95
2021/10/30 11:09:15;;;;;;;26.45;15.60;;;;;;;13.83;65.90;98908.91;5143430;27;20035;-96
2021/10/30 11:11:41;;;;;;;29.85;16.65;;;;;;;13.96;65.54;98916.38;5145433;27;20043;-95
2021/10/30 11:14:10;;;;;;;28.20;16.20;;;;;;;14.03;65.75;98922.41;5143700;27;20039;-95
2021/10/30 11:16:40;;;;;;;30.15;16.30;;;;;;;14.12;64.54;98924.72;5143351;27;20043;-95
2021/10/30 11:19:14;;;;;;;28.65;15.52;;;;;;;14.12;64.83;98914.00;5144084;27;20050;-95
2021/10/30 11:21:46;;;;;;;29.90;15.40;;;;;;;14.09;64.63;98894.53;5143867;27;20389;-95
2021/10/30 11:24:20;;;;;;;28.98;15.57;;;;;;;14.23;64.51;98902.03;5145305;27;20039;-94
2021/10/30 11:26:55;;;;;;;27.75;15.70;;;;;;;14.18;64.33;98891.47;5146483;27;20069;-95